DLH562 LIMC-EDDM
Flight info
| Callsign | DLH562 |
|---|---|
| Flight time | 0h 43m |
| Altitude | 18000 |
| Route | SRN6SXOSKOR6S/35R OSKOR M985 TAGIP T876 GUNGO Y246 TISAX T102 IVKAL/N0423F240 T102 NINUR T101 BETOS BETOS1B |
| Aircraft | A320/M-SDE3FGHIRWY/LB1 |
Departure
| Time | 2026-05-05 21:50 |
|---|---|
| Airport | Milan Malpensa International Airport (LIMC) |
Arrival
| Time | 2026-05-05 22:33 |
|---|---|
| Airport | Munich Airport (EDDM) |
| Time | Latitude | Longitude | Altitude | Speed | Heading |
|---|---|---|---|---|---|
| 2026-05-05 20:26 | 45.62507 | 8.71745 | 730 ft | 0 kts | 259° |
| 2026-05-05 21:13 | 45.62507 | 8.71747 | 730 ft | 2 kts | 259° |
| 2026-05-05 21:13 | 45.62513 | 8.71783 | 729 ft | 4 kts | 256° |
| 2026-05-05 21:13 | 45.62519 | 8.71820 | 729 ft | 4 kts | 258° |
| 2026-05-05 21:14 | 45.62522 | 8.71857 | 730 ft | 4 kts | 294° |
| 2026-05-05 21:14 | 45.62516 | 8.71869 | 728 ft | 0 kts | 349° |
| 2026-05-05 21:20 | 45.62549 | 8.71860 | 731 ft | 11 kts | 351° |
| 2026-05-05 21:21 | 45.62626 | 8.71846 | 732 ft | 10 kts | 7° |
| 2026-05-05 21:21 | 45.62659 | 8.71900 | 733 ft | 6 kts | 69° |
| 2026-05-05 21:21 | 45.62670 | 8.71972 | 733 ft | 11 kts | 88° |
| 2026-05-05 21:21 | 45.62621 | 8.72040 | 732 ft | 10 kts | 165° |
| 2026-05-05 21:22 | 45.62548 | 8.72060 | 729 ft | 11 kts | 169° |
| 2026-05-05 21:22 | 45.62474 | 8.72081 | 729 ft | 11 kts | 169° |
| 2026-05-05 21:22 | 45.62398 | 8.72103 | 728 ft | 11 kts | 169° |
| 2026-05-05 21:22 | 45.62321 | 8.72125 | 725 ft | 11 kts | 168° |
| 2026-05-05 21:23 | 45.62242 | 8.72147 | 725 ft | 12 kts | 169° |
| 2026-05-05 21:23 | 45.62163 | 8.72168 | 724 ft | 12 kts | 169° |
| 2026-05-05 21:23 | 45.62076 | 8.72191 | 723 ft | 14 kts | 169° |
| 2026-05-05 21:23 | 45.61963 | 8.72222 | 720 ft | 19 kts | 169° |
| 2026-05-05 21:24 | 45.61870 | 8.72248 | 717 ft | 22 kts | 169° |
| 2026-05-05 21:24 | 45.61712 | 8.72292 | 712 ft | 14 kts | 169° |
| 2026-05-05 21:24 | 45.61612 | 8.72320 | 710 ft | 15 kts | 169° |
| 2026-05-05 21:24 | 45.61513 | 8.72348 | 705 ft | 15 kts | 169° |
| 2026-05-05 21:25 | 45.61415 | 8.72352 | 699 ft | 14 kts | 208° |
| 2026-05-05 21:25 | 45.61340 | 8.72294 | 702 ft | 12 kts | 179° |
| 2026-05-05 21:25 | 45.61271 | 8.72307 | 703 ft | 0 kts | 171° |
| 2026-05-05 21:26 | 45.61269 | 8.72303 | 703 ft | 1 kts | 204° |
| 2026-05-05 21:26 | 45.61262 | 8.72263 | 703 ft | 11 kts | 257° |
| 2026-05-05 21:27 | 45.61203 | 8.72199 | 695 ft | 12 kts | 180° |
| 2026-05-05 21:27 | 45.61135 | 8.72154 | 696 ft | 11 kts | 206° |
| 2026-05-05 21:27 | 45.61067 | 8.72142 | 694 ft | 10 kts | 171° |
| 2026-05-05 21:27 | 45.60954 | 8.72170 | 695 ft | 24 kts | 168° |
| 2026-05-05 21:28 | 45.60788 | 8.72221 | 694 ft | 25 kts | 169° |
| 2026-05-05 21:28 | 45.60642 | 8.72292 | 696 ft | 19 kts | 122° |
| 2026-05-05 21:28 | 45.60640 | 8.72478 | 691 ft | 20 kts | 89° |
| 2026-05-05 21:28 | 45.60627 | 8.72681 | 696 ft | 21 kts | 96° |
| 2026-05-05 21:29 | 45.60610 | 8.72901 | 690 ft | 23 kts | 96° |
| 2026-05-05 21:29 | 45.60593 | 8.73138 | 695 ft | 23 kts | 95° |
| 2026-05-05 21:29 | 45.60679 | 8.73302 | 697 ft | 23 kts | 24° |
| 2026-05-05 21:29 | 45.60833 | 8.73387 | 697 ft | 24 kts | 20° |
| 2026-05-05 21:30 | 45.61002 | 8.73382 | 699 ft | 25 kts | 351° |
| 2026-05-05 21:30 | 45.61176 | 8.73335 | 695 ft | 26 kts | 349° |
| 2026-05-05 21:30 | 45.61238 | 8.73318 | 700 ft | 0 kts | 349° |
| 2026-05-05 21:32 | 45.61254 | 8.73314 | 696 ft | 10 kts | 349° |
| 2026-05-05 21:32 | 45.61336 | 8.73292 | 701 ft | 12 kts | 349° |
| 2026-05-05 21:32 | 45.61438 | 8.73262 | 693 ft | 21 kts | 348° |
| 2026-05-05 21:32 | 45.61586 | 8.73228 | 705 ft | 18 kts | 15° |
| 2026-05-05 21:33 | 45.61633 | 8.73382 | 695 ft | 18 kts | 84° |
| 2026-05-05 21:33 | 45.61629 | 8.73430 | 704 ft | 0 kts | 107° |
| 2026-05-05 21:39 | 45.61619 | 8.73467 | 699 ft | 0 kts | 118° |
| 2026-05-05 21:39 | 45.61618 | 8.73468 | 699 ft | 0 kts | 118° |
| 2026-05-05 21:42 | 45.61611 | 8.73486 | 696 ft | 9 kts | 118° |
| 2026-05-05 21:42 | 45.61594 | 8.73541 | 698 ft | 3 kts | 108° |
| 2026-05-05 21:42 | 45.61593 | 8.73548 | 697 ft | 0 kts | 106° |
| 2026-05-05 21:44 | 45.61589 | 8.73565 | 698 ft | 7 kts | 104° |
| 2026-05-05 21:45 | 45.61586 | 8.73618 | 702 ft | 0 kts | 91° |
| 2026-05-05 21:48 | 45.61596 | 8.73687 | 696 ft | 18 kts | 62° |
| 2026-05-05 21:48 | 45.61678 | 8.73717 | 699 ft | 0 kts | 347° |
| 2026-05-05 21:49 | 45.61681 | 8.73717 | 700 ft | 3 kts | 348° |
| 2026-05-05 21:49 | 45.61851 | 8.73674 | 699 ft | 64 kts | 351° |
| 2026-05-05 21:49 | 45.62562 | 8.73481 | 724 ft | 143 kts | 348° |
| 2026-05-05 21:49 | 45.63706 | 8.73171 | 1067 ft | 178 kts | 349° |
| 2026-05-05 21:50 | 45.64948 | 8.73080 | 2023 ft | 182 kts | 18° |
| 2026-05-05 21:50 | 45.65981 | 8.74067 | 2585 ft | 187 kts | 55° |
| 2026-05-05 21:50 | 45.66530 | 8.75841 | 2963 ft | 204 kts | 73° |
| 2026-05-05 21:50 | 45.67263 | 8.77576 | 3547 ft | 212 kts | 48° |
| 2026-05-05 21:51 | 45.68380 | 8.79002 | 4165 ft | 217 kts | 39° |
| 2026-05-05 21:51 | 45.69588 | 8.80308 | 4972 ft | 219 kts | 37° |
| 2026-05-05 21:51 | 45.70820 | 8.81625 | 5730 ft | 222 kts | 40° |
| 2026-05-05 21:51 | 45.71898 | 8.83261 | 6346 ft | 233 kts | 60° |
| 2026-05-05 21:52 | 45.71922 | 8.87811 | 6972 ft | 242 kts | 124° |
| 2026-05-05 21:52 | 45.70953 | 8.89745 | 6998 ft | 241 kts | 128° |
| 2026-05-05 21:52 | 45.69956 | 8.91674 | 6999 ft | 241 kts | 128° |
| 2026-05-05 21:53 | 45.68959 | 8.93606 | 7003 ft | 241 kts | 128° |
| 2026-05-05 21:53 | 45.68129 | 8.95838 | 6999 ft | 269 kts | 105° |
| 2026-05-05 21:53 | 45.68124 | 8.98538 | 7002 ft | 278 kts | 78° |
| 2026-05-05 21:53 | 45.68570 | 9.01250 | 6999 ft | 280 kts | 81° |
| 2026-05-05 21:54 | 45.68843 | 9.03996 | 6998 ft | 280 kts | 85° |
| 2026-05-05 21:54 | 45.69040 | 9.06778 | 6996 ft | 280 kts | 86° |
| 2026-05-05 21:54 | 45.69227 | 9.09603 | 7483 ft | 286 kts | 86° |
| 2026-05-05 21:54 | 45.69428 | 9.12428 | 8455 ft | 288 kts | 85° |
| 2026-05-05 21:55 | 45.69650 | 9.15273 | 9340 ft | 292 kts | 85° |
| 2026-05-05 21:55 | 45.69894 | 9.18182 | 10144 ft | 298 kts | 85° |
| 2026-05-05 21:55 | 45.70159 | 9.21248 | 10510 ft | 322 kts | 84° |
| 2026-05-05 21:55 | 45.70452 | 9.24549 | 10770 ft | 346 kts | 84° |
| 2026-05-05 21:56 | 45.70766 | 9.28047 | 11302 ft | 357 kts | 84° |
| 2026-05-05 21:56 | 45.71082 | 9.31578 | 12007 ft | 363 kts | 84° |
| 2026-05-05 21:56 | 45.71404 | 9.35183 | 12736 ft | 368 kts | 84° |
| 2026-05-05 21:56 | 45.71728 | 9.38847 | 13467 ft | 374 kts | 84° |
| 2026-05-05 21:57 | 45.72055 | 9.42562 | 14128 ft | 379 kts | 84° |
| 2026-05-05 21:57 | 45.72384 | 9.46331 | 14746 ft | 384 kts | 85° |
| 2026-05-05 21:57 | 45.72714 | 9.50138 | 15275 ft | 388 kts | 85° |
| 2026-05-05 21:57 | 45.73049 | 9.53995 | 15894 ft | 393 kts | 85° |
| 2026-05-05 21:58 | 45.73389 | 9.57896 | 16498 ft | 398 kts | 85° |
| 2026-05-05 21:58 | 45.73733 | 9.61861 | 17102 ft | 402 kts | 85° |
| 2026-05-05 21:58 | 45.74074 | 9.65834 | 17665 ft | 407 kts | 85° |
| 2026-05-05 21:58 | 45.74422 | 9.69910 | 17929 ft | 411 kts | 86° |
| 2026-05-05 21:59 | 45.74770 | 9.74020 | 17981 ft | 428 kts | 86° |
| 2026-05-05 21:59 | 45.75131 | 9.78314 | 17972 ft | 445 kts | 85° |
| 2026-05-05 21:59 | 45.75507 | 9.82782 | 17976 ft | 450 kts | 85° |
| 2026-05-05 21:59 | 45.75882 | 9.87213 | 17975 ft | 452 kts | 85° |
| 2026-05-05 22:00 | 45.76260 | 9.91692 | 17989 ft | 452 kts | 85° |
| 2026-05-05 22:00 | 45.76634 | 9.96171 | 17991 ft | 453 kts | 86° |
| 2026-05-05 22:00 | 45.77005 | 10.00649 | 17991 ft | 453 kts | 85° |
| 2026-05-05 22:00 | 45.77375 | 10.05141 | 17999 ft | 454 kts | 86° |
| 2026-05-05 22:01 | 45.77738 | 10.09593 | 17998 ft | 454 kts | 86° |
| 2026-05-05 22:01 | 45.78103 | 10.14070 | 18014 ft | 455 kts | 85° |
| 2026-05-05 22:01 | 45.78468 | 10.18551 | 18013 ft | 454 kts | 86° |
| 2026-05-05 22:01 | 45.78836 | 10.23084 | 18007 ft | 454 kts | 86° |
| 2026-05-05 22:02 | 45.79199 | 10.27591 | 18013 ft | 455 kts | 86° |
| 2026-05-05 22:02 | 45.79561 | 10.32098 | 18011 ft | 454 kts | 86° |
| 2026-05-05 22:02 | 45.79937 | 10.36583 | 18009 ft | 454 kts | 83° |
| 2026-05-05 22:02 | 45.80653 | 10.40951 | 18013 ft | 458 kts | 74° |
| 2026-05-05 22:03 | 45.81863 | 10.45185 | 18007 ft | 459 kts | 64° |
| 2026-05-05 22:03 | 45.83541 | 10.49101 | 18010 ft | 460 kts | 55° |
| 2026-05-05 22:03 | 45.85395 | 10.52833 | 18017 ft | 461 kts | 55° |
| 2026-05-05 22:03 | 45.87246 | 10.56559 | 18017 ft | 461 kts | 55° |
| 2026-05-05 22:04 | 45.89113 | 10.60330 | 18012 ft | 461 kts | 55° |
| 2026-05-05 22:04 | 45.90951 | 10.64030 | 18021 ft | 461 kts | 53° |
| 2026-05-05 22:04 | 45.93083 | 10.67497 | 18015 ft | 461 kts | 44° |
| 2026-05-05 22:04 | 45.95581 | 10.70424 | 18277 ft | 462 kts | 32° |
| 2026-05-05 22:05 | 45.98333 | 10.72797 | 18856 ft | 461 kts | 28° |
| 2026-05-05 22:05 | 46.01138 | 10.75082 | 19327 ft | 464 kts | 27° |
| 2026-05-05 22:05 | 46.03949 | 10.77279 | 19732 ft | 467 kts | 27° |
| 2026-05-05 22:05 | 46.06830 | 10.79472 | 19989 ft | 469 kts | 26° |
| 2026-05-05 22:06 | 46.09761 | 10.81677 | 20044 ft | 469 kts | 26° |
| 2026-05-05 22:06 | 46.12610 | 10.83827 | 20030 ft | 468 kts | 26° |
| 2026-05-05 22:06 | 46.15526 | 10.86044 | 20049 ft | 468 kts | 27° |
| 2026-05-05 22:06 | 46.18402 | 10.88250 | 20054 ft | 468 kts | 27° |
| 2026-05-05 22:07 | 46.21272 | 10.90469 | 20048 ft | 468 kts | 27° |
| 2026-05-05 22:07 | 46.24106 | 10.92667 | 20061 ft | 468 kts | 27° |
| 2026-05-05 22:07 | 46.26984 | 10.94905 | 20062 ft | 467 kts | 27° |
| 2026-05-05 22:07 | 46.29830 | 10.97118 | 20051 ft | 467 kts | 27° |
| 2026-05-05 22:08 | 46.32713 | 10.99362 | 20053 ft | 467 kts | 27° |
| 2026-05-05 22:08 | 46.35549 | 11.01575 | 20068 ft | 467 kts | 27° |
| 2026-05-05 22:08 | 46.38435 | 11.03752 | 20054 ft | 466 kts | 22° |
| 2026-05-05 22:08 | 46.41500 | 11.05365 | 20054 ft | 475 kts | 13° |
| 2026-05-05 22:09 | 46.44754 | 11.06280 | 20076 ft | 479 kts | 3° |
| 2026-05-05 22:09 | 46.48087 | 11.06465 | 20383 ft | 479 kts | 356° |
| 2026-05-05 22:09 | 46.51423 | 11.06461 | 20652 ft | 481 kts | 357° |
| 2026-05-05 22:09 | 46.54759 | 11.06468 | 20975 ft | 484 kts | 357° |
| 2026-05-05 22:10 | 46.57048 | 11.06477 | 21210 ft | 485 kts | 357° |
| 2026-05-05 22:10 | 46.60415 | 11.06490 | 21516 ft | 487 kts | 357° |
| 2026-05-05 22:10 | 46.63777 | 11.06484 | 21789 ft | 489 kts | 355° |
| 2026-05-05 22:10 | 46.67156 | 11.06034 | 21970 ft | 488 kts | 349° |
| 2026-05-05 22:11 | 46.70541 | 11.05412 | 21994 ft | 492 kts | 349° |
| 2026-05-05 22:11 | 46.73937 | 11.04778 | 21982 ft | 493 kts | 349° |
| 2026-05-05 22:11 | 46.77339 | 11.04139 | 21980 ft | 494 kts | 349° |
| 2026-05-05 22:11 | 46.80772 | 11.03496 | 21983 ft | 494 kts | 349° |
| 2026-05-05 22:12 | 46.84156 | 11.02854 | 21967 ft | 495 kts | 349° |
| 2026-05-05 22:12 | 46.87577 | 11.02196 | 21960 ft | 493 kts | 349° |
| 2026-05-05 22:12 | 46.90983 | 11.01540 | 21952 ft | 493 kts | 349° |
| 2026-05-05 22:12 | 46.94401 | 11.01075 | 21948 ft | 495 kts | 356° |
| 2026-05-05 22:13 | 46.97854 | 11.01361 | 21948 ft | 498 kts | 4° |
| 2026-05-05 22:13 | 47.01310 | 11.01893 | 21935 ft | 501 kts | 4° |
| 2026-05-05 22:13 | 47.04791 | 11.02427 | 21915 ft | 503 kts | 4° |
| 2026-05-05 22:13 | 47.08278 | 11.02961 | 22031 ft | 505 kts | 4° |
| 2026-05-05 22:14 | 47.11774 | 11.03492 | 22208 ft | 506 kts | 4° |
| 2026-05-05 22:14 | 47.15265 | 11.04017 | 22594 ft | 502 kts | 4° |
| 2026-05-05 22:14 | 47.18734 | 11.04540 | 22973 ft | 501 kts | 4° |
| 2026-05-05 22:14 | 47.22172 | 11.05060 | 23213 ft | 502 kts | 4° |
| 2026-05-05 22:15 | 47.25664 | 11.05589 | 23436 ft | 503 kts | 4° |
| 2026-05-05 22:15 | 47.26842 | 11.05767 | 23479 ft | 502 kts | 4° |
| 2026-05-05 22:15 | 47.27056 | 11.05800 | 23490 ft | 502 kts | 4° |
| 2026-05-05 22:15 | 47.30065 | 11.06208 | 23802 ft | 498 kts | 3° |
| 2026-05-05 22:16 | 47.33500 | 11.06708 | 23890 ft | 503 kts | 4° |
| 2026-05-05 22:16 | 47.36983 | 11.07252 | 23891 ft | 504 kts | 4° |
| 2026-05-05 22:16 | 47.40470 | 11.07820 | 23893 ft | 504 kts | 4° |
| 2026-05-05 22:16 | 47.43968 | 11.08391 | 23898 ft | 505 kts | 4° |
| 2026-05-05 22:17 | 47.47458 | 11.08952 | 23895 ft | 505 kts | 4° |
| 2026-05-05 22:17 | 47.50952 | 11.09499 | 23901 ft | 505 kts | 4° |
| 2026-05-05 22:17 | 47.54439 | 11.10225 | 23852 ft | 507 kts | 10° |
| 2026-05-05 22:17 | 47.57817 | 11.11721 | 23384 ft | 500 kts | 20° |
| 2026-05-05 22:18 | 47.60868 | 11.13954 | 22515 ft | 492 kts | 30° |
| 2026-05-05 22:18 | 47.63797 | 11.16524 | 21669 ft | 485 kts | 30° |
| 2026-05-05 22:18 | 47.66681 | 11.19050 | 20885 ft | 478 kts | 30° |
| 2026-05-05 22:18 | 47.69528 | 11.21536 | 20140 ft | 471 kts | 29° |
| 2026-05-05 22:19 | 47.72339 | 11.23977 | 19428 ft | 465 kts | 28° |
| 2026-05-05 22:19 | 47.75240 | 11.25990 | 18747 ft | 457 kts | 19° |
| 2026-05-05 22:19 | 47.78210 | 11.27619 | 18049 ft | 452 kts | 19° |
| 2026-05-05 22:19 | 47.81142 | 11.29236 | 17301 ft | 446 kts | 19° |
| 2026-05-05 22:20 | 47.84033 | 11.30843 | 16588 ft | 441 kts | 19° |
| 2026-05-05 22:20 | 47.86895 | 11.32418 | 15903 ft | 436 kts | 17° |
| 2026-05-05 22:20 | 47.89817 | 11.33448 | 15258 ft | 429 kts | 6° |
| 2026-05-05 22:20 | 47.92769 | 11.33800 | 14626 ft | 423 kts | 1° |
| 2026-05-05 22:21 | 47.95701 | 11.34051 | 14000 ft | 420 kts | 1° |
| 2026-05-05 22:21 | 47.98595 | 11.34295 | 13560 ft | 411 kts | 1° |
| 2026-05-05 22:21 | 48.01383 | 11.34558 | 13420 ft | 394 kts | 4° |
| 2026-05-05 22:21 | 48.03989 | 11.35554 | 13285 ft | 381 kts | 22° |
| 2026-05-05 22:22 | 48.06198 | 11.37579 | 13140 ft | 368 kts | 40° |
| 2026-05-05 22:22 | 48.07882 | 11.40382 | 12779 ft | 361 kts | 57° |
| 2026-05-05 22:22 | 48.08957 | 11.43736 | 12306 ft | 357 kts | 71° |
| 2026-05-05 22:22 | 48.09788 | 11.47187 | 11804 ft | 355 kts | 71° |
| 2026-05-05 22:23 | 48.10624 | 11.50665 | 11312 ft | 353 kts | 71° |
| 2026-05-05 22:23 | 48.11456 | 11.54127 | 10815 ft | 351 kts | 71° |
| 2026-05-05 22:23 | 48.12276 | 11.57537 | 10537 ft | 342 kts | 71° |
| 2026-05-05 22:23 | 48.13060 | 11.60789 | 10362 ft | 321 kts | 71° |
| 2026-05-05 22:24 | 48.13795 | 11.63844 | 9875 ft | 312 kts | 71° |
| 2026-05-05 22:24 | 48.14517 | 11.66862 | 9687 ft | 308 kts | 71° |
| 2026-05-05 22:24 | 48.15237 | 11.69879 | 9481 ft | 308 kts | 71° |
| 2026-05-05 22:24 | 48.15964 | 11.72926 | 9116 ft | 305 kts | 71° |
| 2026-05-05 22:25 | 48.16665 | 11.75870 | 8744 ft | 303 kts | 71° |
| 2026-05-05 22:25 | 48.17380 | 11.78868 | 8365 ft | 298 kts | 70° |
| 2026-05-05 22:25 | 48.18288 | 11.81517 | 8182 ft | 276 kts | 55° |
| 2026-05-05 22:25 | 48.19475 | 11.83631 | 8024 ft | 257 kts | 42° |
| 2026-05-05 22:26 | 48.20744 | 11.85410 | 7603 ft | 252 kts | 41° |
| 2026-05-05 22:26 | 48.22042 | 11.87225 | 6975 ft | 257 kts | 42° |
| 2026-05-05 22:26 | 48.23336 | 11.89034 | 6542 ft | 252 kts | 42° |
| 2026-05-05 22:26 | 48.24610 | 11.90811 | 6167 ft | 245 kts | 42° |
| 2026-05-05 22:27 | 48.25845 | 11.92537 | 5801 ft | 238 kts | 41° |
| 2026-05-05 22:27 | 48.27000 | 11.94162 | 5676 ft | 221 kts | 41° |
| 2026-05-05 22:27 | 48.28087 | 11.95696 | 5578 ft | 210 kts | 41° |
| 2026-05-05 22:27 | 48.29156 | 11.97202 | 5459 ft | 205 kts | 41° |
| 2026-05-05 22:28 | 48.30155 | 11.98607 | 5353 ft | 189 kts | 41° |
| 2026-05-05 22:28 | 48.31104 | 11.99944 | 5263 ft | 186 kts | 41° |
| 2026-05-05 22:28 | 48.32147 | 12.01032 | 5167 ft | 181 kts | 18° |
| 2026-05-05 22:28 | 48.33348 | 12.01287 | 5089 ft | 176 kts | 351° |
| 2026-05-05 22:29 | 48.34496 | 12.00711 | 4988 ft | 171 kts | 325° |
| 2026-05-05 22:29 | 48.35335 | 11.99500 | 4635 ft | 166 kts | 300° |
| 2026-05-05 22:29 | 48.35723 | 11.97930 | 4195 ft | 162 kts | 276° |
| 2026-05-05 22:29 | 48.35672 | 11.96259 | 3776 ft | 159 kts | 263° |
| 2026-05-05 22:30 | 48.35551 | 11.94647 | 3431 ft | 149 kts | 264° |
| 2026-05-05 22:30 | 48.35437 | 11.93133 | 3195 ft | 143 kts | 264° |
| 2026-05-05 22:30 | 48.35326 | 11.91655 | 2995 ft | 142 kts | 264° |
| 2026-05-05 22:30 | 48.35216 | 11.90191 | 2797 ft | 141 kts | 264° |
| 2026-05-05 22:31 | 48.35105 | 11.88729 | 2611 ft | 141 kts | 264° |
| 2026-05-05 22:31 | 48.34995 | 11.87272 | 2425 ft | 140 kts | 264° |
| 2026-05-05 22:31 | 48.34885 | 11.85805 | 2234 ft | 140 kts | 263° |
| 2026-05-05 22:31 | 48.34778 | 11.84349 | 2019 ft | 140 kts | 263° |
| 2026-05-05 22:32 | 48.34674 | 11.82893 | 1852 ft | 140 kts | 262° |
| 2026-05-05 22:32 | 48.34554 | 11.81433 | 1687 ft | 140 kts | 261° |
| 2026-05-05 22:32 | 48.34449 | 11.79985 | 1523 ft | 139 kts | 260° |
| 2026-05-05 22:32 | 48.34339 | 11.78683 | 1479 ft | 106 kts | 263° |
| 2026-05-05 22:33 | 48.34275 | 11.77834 | 1486 ft | 57 kts | 265° |
| 2026-05-05 22:33 | 48.34254 | 11.77499 | 1488 ft | 7 kts | 263° |
| 2026-05-05 22:33 | 48.34251 | 11.77446 | 1488 ft | 12 kts | 267° |
| 2026-05-05 22:33 | 48.34264 | 11.77256 | 1475 ft | 25 kts | 290° |
| 2026-05-05 22:34 | 48.34339 | 11.76971 | 1486 ft | 22 kts | 294° |
| 2026-05-05 22:34 | 48.34398 | 11.76777 | 1485 ft | 20 kts | 302° |
| 2026-05-05 22:34 | 48.34527 | 11.76692 | 1486 ft | 22 kts | 353° |
| 2026-05-05 22:34 | 48.34674 | 11.76662 | 1486 ft | 21 kts | 353° |
| 2026-05-05 22:35 | 48.34754 | 11.76783 | 1480 ft | 18 kts | 82° |
| 2026-05-05 22:35 | 48.34787 | 11.76859 | 1485 ft | 7 kts | 12° |
| 2026-05-05 22:35 | 48.34832 | 11.76857 | 1480 ft | 6 kts | 352° |
| 2026-05-05 22:35 | 48.34845 | 11.76855 | 1483 ft | 2 kts | 352° |
| 2026-05-05 22:36 | 48.34848 | 11.76854 | 1482 ft | 0 kts | 351° |